KEDE/EDE METAR and TAF weather

Enter ICAO airport designator
Station Type Date Time Source
KEDE METAR 2021/06/24 06:15 UTC NOAA

KEDE 240615Z AUTO 02003KT 10SM CLR 16/14 A3029 RMK AO2 T01550137


Station Type Date Time Source
KEDE Decoded METAR 2021/06/24 06:15 UTC NOAA

Edenton, Northeastern Regional Airport, NC, United States (KEDE) 36-01-40N 076-34-02W
Jun 24, 2021 - 02:15 AM EDT / 2021.06.24 0615 UTC
Wind: from the NNE (020 degrees) at 3 MPH (3 KT):0
Visibility: 10 mile(s):0
Sky conditions: clear
Temperature: 59.9 F (15.5 C)
Dew Point: 56.7 F (13.7 C)
Relative Humidity: 89%
Pressure (altimeter): 30.29 in. Hg (1025 hPa)
ob: KEDE 240615Z AUTO 02003KT 10SM CLR 16/14 A3029 RMK AO2 T01550137
cycle: 6

Station Type Date Time Source
KEDE TAF UTC NOAA

Error!

Example: see airport list